sensor_id;sensor_type;location;lat;lon;timestamp;temperature;humidity
14709;DHT22;7445;50.774;4.944;2023-06-24T00:01:18;20.10;73.90
14709;DHT22;7445;50.774;4.944;2023-06-24T00:03:45;20.10;60.10
14709;DHT22;7445;50.774;4.944;2023-06-24T00:06:12;19.90;67.40
14709;DHT22;7445;50.774;4.944;2023-06-24T00:08:49;19.80;69.10
14709;DHT22;7445;50.774;4.944;2023-06-24T00:11:15;19.70;77.80
14709;DHT22;7445;50.774;4.944;2023-06-24T00:13:42;19.70;88.00
14709;DHT22;7445;50.774;4.944;2023-06-24T00:16:09;19.60;80.90
14709;DHT22;7445;50.774;4.944;2023-06-24T00:18:37;19.60;85.40
14709;DHT22;7445;50.774;4.944;2023-06-24T00:21:03;19.60;84.50
14709;DHT22;7445;50.774;4.944;2023-06-24T00:23:31;19.60;82.90
14709;DHT22;7445;50.774;4.944;2023-06-24T00:26:01;19.60;84.70
14709;DHT22;7445;50.774;4.944;2023-06-24T00:28:27;19.60;90.80
14709;DHT22;7445;50.774;4.944;2023-06-24T00:30:52;19.50;90.80
14709;DHT22;7445;50.774;4.944;2023-06-24T00:33:19;19.50;91.50
14709;DHT22;7445;50.774;4.944;2023-06-24T00:35:45;19.50;90.80
14709;DHT22;7445;50.774;4.944;2023-06-24T00:38:11;19.40;83.20
14709;DHT22;7445;50.774;4.944;2023-06-24T00:40:37;19.40;84.00
14709;DHT22;7445;50.774;4.944;2023-06-24T00:43:05;19.30;74.60
14709;DHT22;7445;50.774;4.944;2023-06-24T00:45:31;19.30;83.70
14709;DHT22;7445;50.774;4.944;2023-06-24T00:48:00;19.20;82.90
14709;DHT22;7445;50.774;4.944;2023-06-24T00:50:26;19.30;76.70
14709;DHT22;7445;50.774;4.944;2023-06-24T00:52:52;19.20;83.50
14709;DHT22;7445;50.774;4.944;2023-06-24T00:55:19;19.20;75.20
14709;DHT22;7445;50.774;4.944;2023-06-24T00:57:50;19.00;79.50
14709;DHT22;7445;50.774;4.944;2023-06-24T01:00:19;19.00;83.50
14709;DHT22;7445;50.774;4.944;2023-06-24T01:02:50;18.90;74.10
14709;DHT22;7445;50.774;4.944;2023-06-24T01:05:16;18.80;75.90
14709;DHT22;7445;50.774;4.944;2023-06-24T01:07:43;18.70;76.60
14709;DHT22;7445;50.774;4.944;2023-06-24T01:10:09;18.70;90.70
14709;DHT22;7445;50.774;4.944;2023-06-24T01:12:39;18.70;88.50
14709;DHT22;7445;50.774;4.944;2023-06-24T01:15:06;18.70;90.30
14709;DHT22;7445;50.774;4.944;2023-06-24T01:31:51;18.50;76.20
14709;DHT22;7445;50.774;4.944;2023-06-24T01:37:14;18.40;72.90
14709;DHT22;7445;50.774;4.944;2023-06-24T01:39:57;18.40;75.70
14709;DHT22;7445;50.774;4.944;2023-06-24T01:42:27;18.30;78.50
14709;DHT22;7445;50.774;4.944;2023-06-24T01:44:54;18.40;77.70
14709;DHT22;7445;50.774;4.944;2023-06-24T01:47:25;18.30;70.40
14709;DHT22;7445;50.774;4.944;2023-06-24T01:49:53;18.20;73.20
14709;DHT22;7445;50.774;4.944;2023-06-24T01:52:22;18.10;77.60
14709;DHT22;7445;50.774;4.944;2023-06-24T01:54:49;18.10;78.60
14709;DHT22;7445;50.774;4.944;2023-06-24T01:57:15;18.10;77.80
14709;DHT22;7445;50.774;4.944;2023-06-24T01:59:44;18.00;74.70
14709;DHT22;7445;50.774;4.944;2023-06-24T02:02:12;18.00;75.40
14709;DHT22;7445;50.774;4.944;2023-06-24T02:04:38;18.10;68.20
14709;DHT22;7445;50.774;4.944;2023-06-24T02:07:06;18.00;68.80
14709;DHT22;7445;50.774;4.944;2023-06-24T02:09:33;17.90;61.10
14709;DHT22;7445;50.774;4.944;2023-06-24T02:12:02;17.90;63.20
14709;DHT22;7445;50.774;4.944;2023-06-24T02:14:29;17.80;44.20
14709;DHT22;7445;50.774;4.944;2023-06-24T02:16:59;17.70;64.70
14709;DHT22;7445;50.774;4.944;2023-06-24T02:19:29;17.70;58.70
14709;DHT22;7445;50.774;4.944;2023-06-24T02:21:56;17.70;64.70
14709;DHT22;7445;50.774;4.944;2023-06-24T02:24:23;17.60;58.30
14709;DHT22;7445;50.774;4.944;2023-06-24T02:26:50;17.60;56.80
14709;DHT22;7445;50.774;4.944;2023-06-24T02:29:18;17.60;58.60
14709;DHT22;7445;50.774;4.944;2023-06-24T02:31:44;17.60;60.20
14709;DHT22;7445;50.774;4.944;2023-06-24T02:34:09;17.60;58.40
14709;DHT22;7445;50.774;4.944;2023-06-24T02:36:35;17.60;53.10
14709;DHT22;7445;50.774;4.944;2023-06-24T02:39:01;17.50;49.80
14709;DHT22;7445;50.774;4.944;2023-06-24T02:41:26;17.30;45.00
14709;DHT22;7445;50.774;4.944;2023-06-24T02:43:52;17.10;54.60
14709;DHT22;7445;50.774;4.944;2023-06-24T02:46:19;16.90;75.70
14709;DHT22;7445;50.774;4.944;2023-06-24T02:48:47;16.90;66.50
14709;DHT22;7445;50.774;4.944;2023-06-24T02:51:13;16.90;73.90
14709;DHT22;7445;50.774;4.944;2023-06-24T02:53:39;17.00;57.00
14709;DHT22;7445;50.774;4.944;2023-06-24T02:56:07;16.90;69.10
14709;DHT22;7445;50.774;4.944;2023-06-24T02:58:33;16.80;62.70
14709;DHT22;7445;50.774;4.944;2023-06-24T03:01:02;16.70;84.00
14709;DHT22;7445;50.774;4.944;2023-06-24T03:03:32;16.70;82.50
14709;DHT22;7445;50.774;4.944;2023-06-24T03:05:59;16.70;92.70
14709;DHT22;7445;50.774;4.944;2023-06-24T03:08:28;16.60;92.00
14709;DHT22;7445;50.774;4.944;2023-06-24T03:10:55;16.70;97.10
14709;DHT22;7445;50.774;4.944;2023-06-24T03:13:21;16.80;96.80
14709;DHT22;7445;50.774;4.944;2023-06-24T03:15:47;16.80;95.40
14709;DHT22;7445;50.774;4.944;2023-06-24T03:18:13;16.80;91.50
14709;DHT22;7445;50.774;4.944;2023-06-24T03:20:38;16.80;92.10
14709;DHT22;7445;50.774;4.944;2023-06-24T03:23:08;16.80;88.00
14709;DHT22;7445;50.774;4.944;2023-06-24T03:25:34;16.80;93.90
14709;DHT22;7445;50.774;4.944;2023-06-24T03:28:01;16.90;94.50
14709;DHT22;7445;50.774;4.944;2023-06-24T03:30:29;16.90;95.00
14709;DHT22;7445;50.774;4.944;2023-06-24T03:32:55;16.90;89.10
14709;DHT22;7445;50.774;4.944;2023-06-24T03:35:20;16.90;74.00
14709;DHT22;7445;50.774;4.944;2023-06-24T03:37:47;16.80;82.10
14709;DHT22;7445;50.774;4.944;2023-06-24T03:40:13;16.80;84.30
14709;DHT22;7445;50.774;4.944;2023-06-24T03:42:39;16.80;88.90
14709;DHT22;7445;50.774;4.944;2023-06-24T03:45:05;16.80;91.50
14709;DHT22;7445;50.774;4.944;2023-06-24T03:47:30;16.70;91.20
14709;DHT22;7445;50.774;4.944;2023-06-24T03:49:56;16.80;93.00
14709;DHT22;7445;50.774;4.944;2023-06-24T03:52:21;16.80;78.00
14709;DHT22;7445;50.774;4.944;2023-06-24T03:54:47;16.70;76.40
14709;DHT22;7445;50.774;4.944;2023-06-24T03:57:13;16.70;88.00
14709;DHT22;7445;50.774;4.944;2023-06-24T03:59:39;16.60;92.20
14709;DHT22;7445;50.774;4.944;2023-06-24T04:02:07;16.60;91.40
14709;DHT22;7445;50.774;4.944;2023-06-24T04:04:34;16.70;92.10
14709;DHT22;7445;50.774;4.944;2023-06-24T04:06:59;16.70;85.10
14709;DHT22;7445;50.774;4.944;2023-06-24T04:09:25;16.70;89.90
14709;DHT22;7445;50.774;4.944;2023-06-24T04:11:51;16.70;92.80
14709;DHT22;7445;50.774;4.944;2023-06-24T04:14:16;16.70;90.70
14709;DHT22;7445;50.774;4.944;2023-06-24T04:16:42;16.80;92.20
14709;DHT22;7445;50.774;4.944;2023-06-24T04:19:08;16.90;91.20
14709;DHT22;7445;50.774;4.944;2023-06-24T04:21:33;16.90;88.30
14709;DHT22;7445;50.774;4.944;2023-06-24T04:23:59;16.90;85.00
14709;DHT22;7445;50.774;4.944;2023-06-24T04:26:24;17.00;84.10
14709;DHT22;7445;50.774;4.944;2023-06-24T04:28:50;17.20;83.90
14709;DHT22;7445;50.774;4.944;2023-06-24T04:31:16;17.20;80.80
14709;DHT22;7445;50.774;4.944;2023-06-24T04:33:41;17.20;90.70
14709;DHT22;7445;50.774;4.944;2023-06-24T04:36:07;17.20;92.30
14709;DHT22;7445;50.774;4.944;2023-06-24T04:38:32;17.20;85.10
14709;DHT22;7445;50.774;4.944;2023-06-24T04:40:58;17.20;91.00
14709;DHT22;7445;50.774;4.944;2023-06-24T04:43:25;17.30;90.50
14709;DHT22;7445;50.774;4.944;2023-06-24T04:45:51;17.30;84.60
14709;DHT22;7445;50.774;4.944;2023-06-24T04:48:16;17.30;81.60
14709;DHT22;7445;50.774;4.944;2023-06-24T04:50:42;17.30;82.30
14709;DHT22;7445;50.774;4.944;2023-06-24T04:53:07;17.30;78.10
14709;DHT22;7445;50.774;4.944;2023-06-24T04:55:33;17.30;79.80
14709;DHT22;7445;50.774;4.944;2023-06-24T04:57:58;17.40;78.30
14709;DHT22;7445;50.774;4.944;2023-06-24T05:00:24;17.50;74.20
14709;DHT22;7445;50.774;4.944;2023-06-24T05:02:50;17.60;67.70
14709;DHT22;7445;50.774;4.944;2023-06-24T05:05:16;17.60;62.10
14709;DHT22;7445;50.774;4.944;2023-06-24T05:07:41;17.70;55.70
14709;DHT22;7445;50.774;4.944;2023-06-24T05:10:07;17.70;57.00
14709;DHT22;7445;50.774;4.944;2023-06-24T05:12:33;17.70;51.00
14709;DHT22;7445;50.774;4.944;2023-06-24T05:14:58;17.70;45.80
14709;DHT22;7445;50.774;4.944;2023-06-24T05:17:24;17.80;46.30
14709;DHT22;7445;50.774;4.944;2023-06-24T05:19:50;17.90;37.30
14709;DHT22;7445;50.774;4.944;2023-06-24T05:22:16;17.90;32.10
14709;DHT22;7445;50.774;4.944;2023-06-24T05:24:42;18.00;37.60
14709;DHT22;7445;50.774;4.944;2023-06-24T05:27:09;18.10;36.80
14709;DHT22;7445;50.774;4.944;2023-06-24T05:29:34;18.00;42.50
14709;DHT22;7445;50.774;4.944;2023-06-24T05:32:00;18.10;42.20
14709;DHT22;7445;50.774;4.944;2023-06-24T05:34:29;18.20;39.20
14709;DHT22;7445;50.774;4.944;2023-06-24T05:36:54;18.30;35.60
14709;DHT22;7445;50.774;4.944;2023-06-24T05:39:20;18.30;34.10
14709;DHT22;7445;50.774;4.944;2023-06-24T05:41:46;18.40;31.90
14709;DHT22;7445;50.774;4.944;2023-06-24T05:44:15;18.50;25.40
14709;DHT22;7445;50.774;4.944;2023-06-24T05:46:40;18.60;24.10
14709;DHT22;7445;50.774;4.944;2023-06-24T05:49:06;18.70;21.10
14709;DHT22;7445;50.774;4.944;2023-06-24T05:51:32;18.80;15.90
14709;DHT22;7445;50.774;4.944;2023-06-24T05:53:59;18.90;9.20
14709;DHT22;7445;50.774;4.944;2023-06-24T05:56:26;18.90;7.70
14709;DHT22;7445;50.774;4.944;2023-06-24T05:58:52;19.00;13.90
14709;DHT22;7445;50.774;4.944;2023-06-24T06:01:17;19.10;7.50
14709;DHT22;7445;50.774;4.944;2023-06-24T06:03:43;19.10;1.00
14709;DHT22;7445;50.774;4.944;2023-06-24T06:06:08;19.20;1.00
14709;DHT22;7445;50.774;4.944;2023-06-24T06:08:34;19.20;1.00
14709;DHT22;7445;50.774;4.944;2023-06-24T06:11:06;19.30;1.00
14709;DHT22;7445;50.774;4.944;2023-06-24T06:13:35;19.40;1.00
14709;DHT22;7445;50.774;4.944;2023-06-24T06:16:01;19.50;1.00
14709;DHT22;7445;50.774;4.944;2023-06-24T06:18:27;19.60;1.00
14709;DHT22;7445;50.774;4.944;2023-06-24T06:20:53;19.70;1.00
14709;DHT22;7445;50.774;4.944;2023-06-24T06:23:18;19.70;1.00
14709;DHT22;7445;50.774;4.944;2023-06-24T06:25:44;19.80;1.00
14709;DHT22;7445;50.774;4.944;2023-06-24T06:28:10;19.90;1.00
14709;DHT22;7445;50.774;4.944;2023-06-24T06:30:39;20.10;1.00
14709;DHT22;7445;50.774;4.944;2023-06-24T06:33:04;20.20;1.00
14709;DHT22;7445;50.774;4.944;2023-06-24T06:35:30;20.30;1.00
14709;DHT22;7445;50.774;4.944;2023-06-24T06:37:57;20.40;1.00
14709;DHT22;7445;50.774;4.944;2023-06-24T06:40:23;20.40;1.00
14709;DHT22;7445;50.774;4.944;2023-06-24T06:42:49;20.60;1.00
14709;DHT22;7445;50.774;4.944;2023-06-24T06:45:17;20.70;1.00
14709;DHT22;7445;50.774;4.944;2023-06-24T06:47:44;20.70;99.90
14709;DHT22;7445;50.774;4.944;2023-06-24T06:50:15;20.70;1.00
14709;DHT22;7445;50.774;4.944;2023-06-24T06:52:43;20.70;99.90
14709;DHT22;7445;50.774;4.944;2023-06-24T06:55:09;20.90;1.00
14709;DHT22;7445;50.774;4.944;2023-06-24T06:57:35;20.90;99.90
14709;DHT22;7445;50.774;4.944;2023-06-24T07:00:02;21.00;99.90
14709;DHT22;7445;50.774;4.944;2023-06-24T07:02:27;21.10;99.90
14709;DHT22;7445;50.774;4.944;2023-06-24T07:04:53;21.20;99.90
14709;DHT22;7445;50.774;4.944;2023-06-24T07:07:19;21.40;1.00
14709;DHT22;7445;50.774;4.944;2023-06-24T07:09:44;21.50;1.00
14709;DHT22;7445;50.774;4.944;2023-06-24T07:12:12;21.60;99.90
14709;DHT22;7445;50.774;4.944;2023-06-24T07:14:39;21.70;99.90
14709;DHT22;7445;50.774;4.944;2023-06-24T07:17:08;21.70;1.00
14709;DHT22;7445;50.774;4.944;2023-06-24T07:19:34;21.70;68.70
14709;DHT22;7445;50.774;4.944;2023-06-24T07:22:05;21.80;57.10
14709;DHT22;7445;50.774;4.944;2023-06-24T07:24:34;22.00;70.30
14709;DHT22;7445;50.774;4.944;2023-06-24T07:27:00;22.20;74.00
14709;DHT22;7445;50.774;4.944;2023-06-24T07:29:25;22.20;62.80
14709;DHT22;7445;50.774;4.944;2023-06-24T07:31:51;22.30;52.90
14709;DHT22;7445;50.774;4.944;2023-06-24T07:34:17;22.50;56.10
14709;DHT22;7445;50.774;4.944;2023-06-24T07:36:44;22.70;56.20
14709;DHT22;7445;50.774;4.944;2023-06-24T07:39:17;22.90;58.20
14709;DHT22;7445;50.774;4.944;2023-06-24T07:41:47;22.70;40.90
14709;DHT22;7445;50.774;4.944;2023-06-24T07:44:22;22.50;50.60
14709;DHT22;7445;50.774;4.944;2023-06-24T07:46:47;22.70;41.00
14709;DHT22;7445;50.774;4.944;2023-06-24T07:49:19;22.80;40.30
14709;DHT22;7445;50.774;4.944;2023-06-24T07:51:45;23.00;35.00
14709;DHT22;7445;50.774;4.944;2023-06-24T07:54:11;23.30;43.30
14709;DHT22;7445;50.774;4.944;2023-06-24T07:56:39;23.40;38.80
14709;DHT22;7445;50.774;4.944;2023-06-24T07:59:05;23.50;40.50
14709;DHT22;7445;50.774;4.944;2023-06-24T08:01:30;23.50;46.30
14709;DHT22;7445;50.774;4.944;2023-06-24T08:03:56;23.70;37.00
14709;DHT22;7445;50.774;4.944;2023-06-24T08:06:22;23.70;38.80
14709;DHT22;7445;50.774;4.944;2023-06-24T08:08:48;23.90;28.30
14709;DHT22;7445;50.774;4.944;2023-06-24T08:11:13;24.10;29.80
14709;DHT22;7445;50.774;4.944;2023-06-24T08:13:39;24.10;27.00
14709;DHT22;7445;50.774;4.944;2023-06-24T08:16:05;24.10;30.60
14709;DHT22;7445;50.774;4.944;2023-06-24T08:18:33;24.20;27.80
14709;DHT22;7445;50.774;4.944;2023-06-24T08:20:59;24.20;26.10
14709;DHT22;7445;50.774;4.944;2023-06-24T08:23:26;24.40;24.20
14709;DHT22;7445;50.774;4.944;2023-06-24T08:25:51;24.40;23.70
14709;DHT22;7445;50.774;4.944;2023-06-24T08:28:20;24.60;23.90
14709;DHT22;7445;50.774;4.944;2023-06-24T08:30:46;24.70;27.20
14709;DHT22;7445;50.774;4.944;2023-06-24T08:33:12;24.80;23.30
14709;DHT22;7445;50.774;4.944;2023-06-24T08:35:37;24.90;22.60
14709;DHT22;7445;50.774;4.944;2023-06-24T08:38:06;24.90;15.90
14709;DHT22;7445;50.774;4.944;2023-06-24T08:40:52;25.10;15.00
14709;DHT22;7445;50.774;4.944;2023-06-24T08:43:25;25.20;12.40
14709;DHT22;7445;50.774;4.944;2023-06-24T08:45:50;25.30;15.10
14709;DHT22;7445;50.774;4.944;2023-06-24T08:51:18;25.30;12.50
14709;DHT22;7445;50.774;4.944;2023-06-24T08:53:48;25.40;9.00
14709;DHT22;7445;50.774;4.944;2023-06-24T08:57:14;25.60;4.60
14709;DHT22;7445;50.774;4.944;2023-06-24T09:00:24;25.60;5.50
14709;DHT22;7445;50.774;4.944;2023-06-24T09:02:49;25.80;9.50
14709;DHT22;7445;50.774;4.944;2023-06-24T09:05:15;25.70;11.70
14709;DHT22;7445;50.774;4.944;2023-06-24T09:07:47;25.60;8.00
14709;DHT22;7445;50.774;4.944;2023-06-24T09:10:33;25.80;12.20
14709;DHT22;7445;50.774;4.944;2023-06-24T09:13:04;25.90;3.10
14709;DHT22;7445;50.774;4.944;2023-06-24T09:15:58;26.00;3.60
14709;DHT22;7445;50.774;4.944;2023-06-24T09:18:32;26.10;7.40
14709;DHT22;7445;50.774;4.944;2023-06-24T09:21:10;26.20;5.50
14709;DHT22;7445;50.774;4.944;2023-06-24T09:23:39;26.50;3.50
14709;DHT22;7445;50.774;4.944;2023-06-24T09:26:48;26.40;1.00
14709;DHT22;7445;50.774;4.944;2023-06-24T09:29:34;26.70;1.00
14709;DHT22;7445;50.774;4.944;2023-06-24T09:32:19;26.70;1.00
14709;DHT22;7445;50.774;4.944;2023-06-24T09:34:44;26.80;1.00
14709;DHT22;7445;50.774;4.944;2023-06-24T09:37:20;26.90;1.00
14709;DHT22;7445;50.774;4.944;2023-06-24T09:39:49;27.10;1.00
14709;DHT22;7445;50.774;4.944;2023-06-24T09:42:36;27.10;1.00
14709;DHT22;7445;50.774;4.944;2023-06-24T09:45:08;27.20;1.00
14709;DHT22;7445;50.774;4.944;2023-06-24T09:47:35;26.90;1.00
14709;DHT22;7445;50.774;4.944;2023-06-24T09:50:27;26.90;1.00
14709;DHT22;7445;50.774;4.944;2023-06-24T09:52:58;27.00;1.00
14709;DHT22;7445;50.774;4.944;2023-06-24T09:55:33;27.00;1.00
14709;DHT22;7445;50.774;4.944;2023-06-24T09:58:05;27.20;1.00
14709;DHT22;7445;50.774;4.944;2023-06-24T10:00:55;27.40;1.00
14709;DHT22;7445;50.774;4.944;2023-06-24T10:03:42;27.30;1.00
14709;DHT22;7445;50.774;4.944;2023-06-24T10:06:12;27.60;1.00
14709;DHT22;7445;50.774;4.944;2023-06-24T10:08:38;27.80;1.00
14709;DHT22;7445;50.774;4.944;2023-06-24T10:11:37;27.80;1.00
14709;DHT22;7445;50.774;4.944;2023-06-24T10:14:12;27.80;1.00
14709;DHT22;7445;50.774;4.944;2023-06-24T10:16:40;27.90;1.00
14709;DHT22;7445;50.774;4.944;2023-06-24T10:19:28;28.10;1.00
14709;DHT22;7445;50.774;4.944;2023-06-24T10:21:58;28.30;1.00
14709;DHT22;7445;50.774;4.944;2023-06-24T10:24:32;28.40;1.00
14709;DHT22;7445;50.774;4.944;2023-06-24T10:29:47;28.40;1.00
14709;DHT22;7445;50.774;4.944;2023-06-24T10:32:18;28.40;1.00
14709;DHT22;7445;50.774;4.944;2023-06-24T10:34:49;28.30;1.00
14709;DHT22;7445;50.774;4.944;2023-06-24T10:37:23;28.50;1.00
14709;DHT22;7445;50.774;4.944;2023-06-24T10:39:53;28.30;1.00
14709;DHT22;7445;50.774;4.944;2023-06-24T10:42:27;28.50;1.00
14709;DHT22;7445;50.774;4.944;2023-06-24T10:45:37;28.70;1.00
14709;DHT22;7445;50.774;4.944;2023-06-24T10:48:23;28.90;1.00
14709;DHT22;7445;50.774;4.944;2023-06-24T10:50:52;29.10;1.00
14709;DHT22;7445;50.774;4.944;2023-06-24T10:53:18;29.10;1.00
14709;DHT22;7445;50.774;4.944;2023-06-24T10:55:47;29.10;1.00
14709;DHT22;7445;50.774;4.944;2023-06-24T10:58:14;29.20;1.00
14709;DHT22;7445;50.774;4.944;2023-06-24T11:00:45;29.00;1.00
14709;DHT22;7445;50.774;4.944;2023-06-24T11:03:17;29.10;1.00
14709;DHT22;7445;50.774;4.944;2023-06-24T11:05:45;29.40;1.00
14709;DHT22;7445;50.774;4.944;2023-06-24T11:08:11;29.30;1.00
14709;DHT22;7445;50.774;4.944;2023-06-24T11:10:47;29.30;1.00
14709;DHT22;7445;50.774;4.944;2023-06-24T11:13:13;29.40;1.00
14709;DHT22;7445;50.774;4.944;2023-06-24T11:15:39;29.30;1.00
14709;DHT22;7445;50.774;4.944;2023-06-24T11:18:14;29.20;1.00
14709;DHT22;7445;50.774;4.944;2023-06-24T11:20:40;29.50;1.00
14709;DHT22;7445;50.774;4.944;2023-06-24T11:23:12;29.60;1.00
14709;DHT22;7445;50.774;4.944;2023-06-24T11:25:41;30.00;1.00
14709;DHT22;7445;50.774;4.944;2023-06-24T11:28:37;29.80;1.00
14709;DHT22;7445;50.774;4.944;2023-06-24T11:31:18;30.10;1.00
14709;DHT22;7445;50.774;4.944;2023-06-24T11:33:49;30.20;1.00
14709;DHT22;7445;50.774;4.944;2023-06-24T11:36:21;30.40;1.00
14709;DHT22;7445;50.774;4.944;2023-06-24T11:38:48;30.30;1.00
14709;DHT22;7445;50.774;4.944;2023-06-24T11:41:16;29.90;1.00
14709;DHT22;7445;50.774;4.944;2023-06-24T11:43:45;30.20;1.00
14709;DHT22;7445;50.774;4.944;2023-06-24T11:46:24;30.10;1.00
14709;DHT22;7445;50.774;4.944;2023-06-24T11:49:03;30.40;1.00
14709;DHT22;7445;50.774;4.944;2023-06-24T11:51:31;30.30;1.00
14709;DHT22;7445;50.774;4.944;2023-06-24T11:54:03;30.70;1.00
14709;DHT22;7445;50.774;4.944;2023-06-24T11:56:38;30.60;1.00
14709;DHT22;7445;50.774;4.944;2023-06-24T11:59:14;30.60;1.00
14709;DHT22;7445;50.774;4.944;2023-06-24T12:02:02;30.80;1.00
14709;DHT22;7445;50.774;4.944;2023-06-24T12:04:30;30.70;1.00
14709;DHT22;7445;50.774;4.944;2023-06-24T12:06:57;30.60;1.00
14709;DHT22;7445;50.774;4.944;2023-06-24T12:09:24;30.60;1.00
14709;DHT22;7445;50.774;4.944;2023-06-24T12:11:51;30.70;1.00
14709;DHT22;7445;50.774;4.944;2023-06-24T12:14:20;30.80;1.00
14709;DHT22;7445;50.774;4.944;2023-06-24T12:16:45;30.60;1.00
14709;DHT22;7445;50.774;4.944;2023-06-24T12:19:12;30.80;1.00
14709;DHT22;7445;50.774;4.944;2023-06-24T12:21:38;30.80;1.00
14709;DHT22;7445;50.774;4.944;2023-06-24T12:24:19;30.80;1.00
14709;DHT22;7445;50.774;4.944;2023-06-24T12:26:45;30.90;1.00
14709;DHT22;7445;50.774;4.944;2023-06-24T12:29:12;31.10;1.00
14709;DHT22;7445;50.774;4.944;2023-06-24T12:31:37;31.10;1.00
14709;DHT22;7445;50.774;4.944;2023-06-24T12:34:03;31.40;1.00
14709;DHT22;7445;50.774;4.944;2023-06-24T12:36:30;31.80;1.00
14709;DHT22;7445;50.774;4.944;2023-06-24T12:38:56;31.20;1.00
14709;DHT22;7445;50.774;4.944;2023-06-24T12:41:22;31.10;1.00
14709;DHT22;7445;50.774;4.944;2023-06-24T12:43:49;31.40;1.00
14709;DHT22;7445;50.774;4.944;2023-06-24T12:46:15;31.30;1.00
14709;DHT22;7445;50.774;4.944;2023-06-24T12:48:41;31.20;1.00
14709;DHT22;7445;50.774;4.944;2023-06-24T12:51:15;31.40;1.00
14709;DHT22;7445;50.774;4.944;2023-06-24T12:53:41;31.40;1.00
14709;DHT22;7445;50.774;4.944;2023-06-24T12:56:26;31.40;1.00
14709;DHT22;7445;50.774;4.944;2023-06-24T12:58:53;31.50;1.00
14709;DHT22;7445;50.774;4.944;2023-06-24T13:01:42;31.70;1.00
14709;DHT22;7445;50.774;4.944;2023-06-24T13:04:17;31.40;1.00
14709;DHT22;7445;50.774;4.944;2023-06-24T13:06:46;31.60;1.00
14709;DHT22;7445;50.774;4.944;2023-06-24T13:09:19;31.90;1.00
14709;DHT22;7445;50.774;4.944;2023-06-24T13:12:00;32.00;1.00
14709;DHT22;7445;50.774;4.944;2023-06-24T13:14:41;32.00;1.00
14709;DHT22;7445;50.774;4.944;2023-06-24T13:17:07;32.00;1.00
14709;DHT22;7445;50.774;4.944;2023-06-24T13:19:39;31.70;1.00
14709;DHT22;7445;50.774;4.944;2023-06-24T13:22:08;31.80;1.00
14709;DHT22;7445;50.774;4.944;2023-06-24T13:25:00;32.00;1.00
14709;DHT22;7445;50.774;4.944;2023-06-24T13:27:35;31.90;1.00
14709;DHT22;7445;50.774;4.944;2023-06-24T13:30:09;32.30;1.00
14709;DHT22;7445;50.774;4.944;2023-06-24T13:32:37;31.60;1.00
14709;DHT22;7445;50.774;4.944;2023-06-24T13:35:22;31.80;1.00
14709;DHT22;7445;50.774;4.944;2023-06-24T13:37:52;31.90;1.00
14709;DHT22;7445;50.774;4.944;2023-06-24T13:40:38;32.20;1.00
14709;DHT22;7445;50.774;4.944;2023-06-24T13:43:06;32.50;1.00
14709;DHT22;7445;50.774;4.944;2023-06-24T13:45:35;32.40;1.00
14709;DHT22;7445;50.774;4.944;2023-06-24T13:48:04;32.40;1.00
14709;DHT22;7445;50.774;4.944;2023-06-24T13:50:30;32.40;1.00
14709;DHT22;7445;50.774;4.944;2023-06-24T13:53:02;32.60;1.00
14709;DHT22;7445;50.774;4.944;2023-06-24T13:56:12;32.00;1.00
14709;DHT22;7445;50.774;4.944;2023-06-24T13:58:44;32.20;1.00
14709;DHT22;7445;50.774;4.944;2023-06-24T14:01:13;32.60;1.00
14709;DHT22;7445;50.774;4.944;2023-06-24T14:03:58;32.80;1.00
14709;DHT22;7445;50.774;4.944;2023-06-24T14:06:24;32.20;1.00
14709;DHT22;7445;50.774;4.944;2023-06-24T14:08:50;32.00;1.00
14709;DHT22;7445;50.774;4.944;2023-06-24T14:11:17;31.50;1.00
14709;DHT22;7445;50.774;4.944;2023-06-24T14:13:43;31.60;1.00
14709;DHT22;7445;50.774;4.944;2023-06-24T14:16:10;31.60;1.00
14709;DHT22;7445;50.774;4.944;2023-06-24T14:19:38;31.80;1.00
14709;DHT22;7445;50.774;4.944;2023-06-24T14:22:26;32.20;1.00
14709;DHT22;7445;50.774;4.944;2023-06-24T14:25:05;32.70;1.00
14709;DHT22;7445;50.774;4.944;2023-06-24T14:27:31;32.90;1.00
14709;DHT22;7445;50.774;4.944;2023-06-24T14:29:56;33.20;1.00
14709;DHT22;7445;50.774;4.944;2023-06-24T14:32:22;32.90;1.00
14709;DHT22;7445;50.774;4.944;2023-06-24T14:34:48;33.20;1.00
14709;DHT22;7445;50.774;4.944;2023-06-24T14:37:33;33.00;1.00
14709;DHT22;7445;50.774;4.944;2023-06-24T14:40:08;33.40;1.00
14709;DHT22;7445;50.774;4.944;2023-06-24T14:43:01;33.70;1.00
14709;DHT22;7445;50.774;4.944;2023-06-24T14:46:13;33.40;1.00
14709;DHT22;7445;50.774;4.944;2023-06-24T14:48:41;32.90;1.00
14709;DHT22;7445;50.774;4.944;2023-06-24T14:51:06;33.20;1.00
14709;DHT22;7445;50.774;4.944;2023-06-24T14:53:32;33.60;1.00
14709;DHT22;7445;50.774;4.944;2023-06-24T14:55:58;33.60;1.00
14709;DHT22;7445;50.774;4.944;2023-06-24T14:58:26;33.70;1.00
14709;DHT22;7445;50.774;4.944;2023-06-24T15:01:09;33.90;1.00
14709;DHT22;7445;50.774;4.944;2023-06-24T15:03:56;34.00;1.00
14709;DHT22;7445;50.774;4.944;2023-06-24T15:06:23;33.60;1.00
14709;DHT22;7445;50.774;4.944;2023-06-24T15:08:48;33.80;1.00
14709;DHT22;7445;50.774;4.944;2023-06-24T15:11:15;34.00;1.00
14709;DHT22;7445;50.774;4.944;2023-06-24T15:13:41;33.70;1.00
14709;DHT22;7445;50.774;4.944;2023-06-24T15:16:06;33.50;1.00
14709;DHT22;7445;50.774;4.944;2023-06-24T15:18:43;33.80;1.00
14709;DHT22;7445;50.774;4.944;2023-06-24T15:21:42;34.20;1.00
14709;DHT22;7445;50.774;4.944;2023-06-24T15:24:09;34.30;1.00
14709;DHT22;7445;50.774;4.944;2023-06-24T15:26:37;34.40;1.00
14709;DHT22;7445;50.774;4.944;2023-06-24T15:29:03;34.50;1.00
14709;DHT22;7445;50.774;4.944;2023-06-24T15:31:31;34.50;1.00
14709;DHT22;7445;50.774;4.944;2023-06-24T15:33:57;34.50;1.00
14709;DHT22;7445;50.774;4.944;2023-06-24T15:36:45;34.30;1.00
14709;DHT22;7445;50.774;4.944;2023-06-24T15:39:12;34.50;1.00
14709;DHT22;7445;50.774;4.944;2023-06-24T15:41:39;34.60;1.00
14709;DHT22;7445;50.774;4.944;2023-06-24T15:44:06;34.80;1.00
14709;DHT22;7445;50.774;4.944;2023-06-24T15:46:32;34.90;1.00
14709;DHT22;7445;50.774;4.944;2023-06-24T15:48:58;35.10;1.00
14709;DHT22;7445;50.774;4.944;2023-06-24T15:51:24;35.20;1.00
14709;DHT22;7445;50.774;4.944;2023-06-24T15:53:49;35.30;1.00
14709;DHT22;7445;50.774;4.944;2023-06-24T15:56:15;35.40;1.00
14709;DHT22;7445;50.774;4.944;2023-06-24T15:58:43;35.20;1.00
14709;DHT22;7445;50.774;4.944;2023-06-24T16:01:09;35.00;1.00
14709;DHT22;7445;50.774;4.944;2023-06-24T16:03:38;35.20;1.00
14709;DHT22;7445;50.774;4.944;2023-06-24T16:06:04;35.20;1.00
14709;DHT22;7445;50.774;4.944;2023-06-24T16:08:30;35.10;1.00
14709;DHT22;7445;50.774;4.944;2023-06-24T16:10:56;34.80;1.00
14709;DHT22;7445;50.774;4.944;2023-06-24T16:13:31;34.50;1.00
14709;DHT22;7445;50.774;4.944;2023-06-24T16:16:07;34.30;1.00
14709;DHT22;7445;50.774;4.944;2023-06-24T16:18:34;33.70;1.00
14709;DHT22;7445;50.774;4.944;2023-06-24T16:21:19;33.30;1.00
14709;DHT22;7445;50.774;4.944;2023-06-24T16:23:50;32.60;1.00
14709;DHT22;7445;50.774;4.944;2023-06-24T16:26:16;32.10;1.00
14709;DHT22;7445;50.774;4.944;2023-06-24T16:28:44;31.80;1.00
14709;DHT22;7445;50.774;4.944;2023-06-24T16:31:11;31.50;1.00
14709;DHT22;7445;50.774;4.944;2023-06-24T16:33:37;31.30;1.00
14709;DHT22;7445;50.774;4.944;2023-06-24T16:36:05;31.30;1.00